createdAt,value
2023-05-09T00:00:35.633Z,1002.23
2023-05-09T00:01:35.627Z,1002.26
2023-05-09T00:02:35.765Z,1002.26
2023-05-09T00:03:35.624Z,1002.21
2023-05-09T00:04:35.732Z,1002.21
2023-05-09T00:05:35.652Z,1002.20
2023-05-09T00:06:35.594Z,1002.17
2023-05-09T00:07:36.589Z,1002.16
2023-05-09T00:08:35.602Z,1002.14
2023-05-09T00:09:35.587Z,1002.15
2023-05-09T00:10:35.578Z,1002.21
2023-05-09T00:11:35.566Z,1002.18
2023-05-09T00:12:35.569Z,1002.28
2023-05-09T00:13:35.557Z,1002.21
2023-05-09T00:14:35.584Z,1002.23
2023-05-09T00:15:35.549Z,1002.21
2023-05-09T00:16:35.558Z,1002.21
2023-05-09T00:17:35.554Z,1002.17
2023-05-09T00:18:35.526Z,1002.14
2023-05-09T00:19:35.570Z,1002.14
2023-05-09T00:20:35.624Z,1002.13
2023-05-09T00:21:35.514Z,1002.15
2023-05-09T00:22:35.507Z,1002.14
2023-05-09T00:23:35.574Z,1002.09
2023-05-09T00:24:35.526Z,1002.14
2023-05-09T00:25:35.526Z,1002.06
2023-05-09T00:26:35.552Z,1002.08
2023-05-09T00:27:35.461Z,1002.05
2023-05-09T00:28:35.485Z,1002.08
2023-05-09T00:29:35.496Z,1002.00
2023-05-09T00:30:35.470Z,1002.00
2023-05-09T00:31:35.480Z,1002.06
2023-05-09T00:32:36.451Z,1002.01
2023-05-09T00:33:35.443Z,1002.03
2023-05-09T00:34:35.460Z,1002.00
2023-05-09T00:35:35.407Z,1002.00
2023-05-09T00:36:35.591Z,1002.01
2023-05-09T00:37:35.452Z,1002.00
2023-05-09T00:38:35.385Z,1001.93
2023-05-09T00:39:35.376Z,1001.85
2023-05-09T00:40:35.416Z,1001.92
2023-05-09T00:41:35.367Z,1002.01
2023-05-09T00:42:35.384Z,1001.96
2023-05-09T00:43:35.349Z,1001.88
2023-05-09T00:44:35.350Z,1002.01
2023-05-09T00:45:35.375Z,1001.93
2023-05-09T00:46:35.414Z,1001.90
2023-05-09T00:47:35.381Z,1001.92
2023-05-09T00:48:35.338Z,1001.90
2023-05-09T00:49:35.336Z,1001.90
2023-05-09T00:50:35.326Z,1001.86
2023-05-09T00:51:35.311Z,1001.89
2023-05-09T00:52:35.414Z,1001.89
2023-05-09T00:53:35.314Z,1001.83
2023-05-09T00:54:35.283Z,1001.87
2023-05-09T00:55:35.288Z,1001.86
2023-05-09T00:56:35.285Z,1001.86
2023-05-09T00:57:35.266Z,1001.86
2023-05-09T00:58:35.263Z,1001.88
2023-05-09T00:59:35.268Z,1001.91
2023-05-09T01:00:35.250Z,1001.85
2023-05-09T01:01:35.306Z,1001.87
2023-05-09T01:02:36.317Z,1001.81
2023-05-09T01:03:35.403Z,1001.84
2023-05-09T01:04:35.261Z,1001.78
2023-05-09T01:05:35.212Z,1001.78
2023-05-09T01:06:35.219Z,1001.85
2023-05-09T01:07:35.191Z,1001.77
2023-05-09T01:08:35.301Z,1001.76
2023-05-09T01:09:35.189Z,1001.74
2023-05-09T01:10:35.182Z,1001.80
2023-05-09T01:11:35.191Z,1001.75
2023-05-09T01:12:35.359Z,1001.76
2023-05-09T01:13:35.176Z,1001.80
2023-05-09T01:14:35.169Z,1001.79
2023-05-09T01:15:35.172Z,1001.79
2023-05-09T01:16:35.158Z,1001.77
2023-05-09T01:17:35.223Z,1001.72
2023-05-09T01:18:35.147Z,1001.72
2023-05-09T01:19:35.151Z,1001.78
2023-05-09T01:20:35.121Z,1001.67
2023-05-09T01:21:35.118Z,1001.78
2023-05-09T01:22:35.134Z,1001.71
2023-05-09T01:23:35.107Z,1001.70
2023-05-09T01:24:35.235Z,1001.65
2023-05-09T01:25:35.127Z,1001.69
2023-05-09T01:26:35.083Z,1001.65
2023-05-09T01:27:35.107Z,1001.62
2023-05-09T01:28:35.071Z,1001.63
2023-05-09T01:29:35.071Z,1001.66
2023-05-09T01:30:35.108Z,1001.64
2023-05-09T01:31:35.063Z,1001.60
2023-05-09T01:32:35.093Z,1001.61
2023-05-09T01:33:35.031Z,1001.64
2023-05-09T01:34:35.042Z,1001.69
2023-05-09T01:35:35.037Z,1001.58
2023-05-09T01:36:35.031Z,1001.66
2023-05-09T01:37:35.033Z,1001.64
2023-05-09T01:38:34.988Z,1001.65
2023-05-09T01:39:36.019Z,1001.63
2023-05-09T01:40:35.078Z,1001.66
2023-05-09T01:41:34.976Z,1001.58
2023-05-09T01:42:34.977Z,1001.63
2023-05-09T01:43:35.003Z,1001.65
2023-05-09T01:44:34.958Z,1001.66
2023-05-09T01:45:34.958Z,1001.58
2023-05-09T01:46:34.997Z,1001.59
2023-05-09T01:47:34.977Z,1001.61
2023-05-09T01:48:34.932Z,1001.56
2023-05-09T01:49:34.922Z,1001.55
2023-05-09T01:50:34.964Z,1001.58
2023-05-09T01:51:34.926Z,1001.64
2023-05-09T01:52:34.909Z,1001.63
2023-05-09T01:53:34.917Z,1001.63
2023-05-09T01:54:34.873Z,1001.54
2023-05-09T01:55:34.927Z,1001.60
2023-05-09T01:56:34.961Z,1001.59
2023-05-09T01:57:34.875Z,1001.51
2023-05-09T01:58:34.845Z,1001.57
2023-05-09T01:59:34.837Z,1001.56
2023-05-09T02:00:34.897Z,1001.47
2023-05-09T02:01:34.886Z,1001.47
2023-05-09T02:02:34.907Z,1001.48
2023-05-09T02:03:34.830Z,1001.47
2023-05-09T02:04:34.833Z,1001.47
2023-05-09T02:05:34.832Z,1001.50
2023-05-09T02:06:34.828Z,1001.43
2023-05-09T02:07:34.796Z,1001.50
2023-05-09T02:08:34.829Z,1001.49
2023-05-09T02:09:35.771Z,1001.48
2023-05-09T02:10:34.776Z,1001.47
2023-05-09T02:11:34.770Z,1001.43
2023-05-09T02:12:34.853Z,1001.41
2023-05-09T02:13:34.740Z,1001.45
2023-05-09T02:14:34.751Z,1001.38
2023-05-09T02:15:34.779Z,1001.40
2023-05-09T02:16:34.765Z,1001.44
2023-05-09T02:17:34.772Z,1001.43
2023-05-09T02:18:34.738Z,1001.40
2023-05-09T02:19:34.706Z,1001.40
2023-05-09T02:20:34.715Z,1001.46
2023-05-09T02:21:34.703Z,1001.42
2023-05-09T02:22:34.710Z,1001.45
2023-05-09T02:23:34.678Z,1001.38
2023-05-09T02:24:34.668Z,1001.41
2023-05-09T02:25:34.673Z,1001.39
2023-05-09T02:26:34.688Z,1001.41
2023-05-09T02:27:35.288Z,1001.36
2023-05-09T02:28:34.752Z,1001.35
2023-05-09T02:29:34.670Z,1001.43
2023-05-09T02:30:34.628Z,1001.42
2023-05-09T02:31:34.686Z,1001.44
2023-05-09T02:32:34.814Z,1001.46
2023-05-09T02:33:34.635Z,1001.45
2023-05-09T02:34:34.613Z,1001.39
2023-05-09T02:35:34.597Z,1001.36
2023-05-09T02:36:35.721Z,1001.42
2023-05-09T02:37:34.646Z,1001.35
2023-05-09T02:38:34.700Z,1001.36
2023-05-09T02:39:34.575Z,1001.39
2023-05-09T02:40:34.571Z,1001.39
2023-05-09T02:41:34.601Z,1001.36
2023-05-09T02:42:34.554Z,1001.33
2023-05-09T02:43:34.747Z,1001.29
2023-05-09T02:44:34.633Z,1001.25
2023-05-09T02:45:34.532Z,1001.31
2023-05-09T02:46:34.570Z,1001.26
2023-05-09T02:47:34.594Z,1001.26
2023-05-09T02:48:34.545Z,1001.21
2023-05-09T02:49:34.511Z,1001.23
2023-05-09T02:50:34.505Z,1001.23
2023-05-09T02:51:34.510Z,1001.25
2023-05-09T02:52:34.553Z,1001.21
2023-05-09T02:53:34.472Z,1001.24
2023-05-09T02:54:34.473Z,1001.16
2023-05-09T02:55:34.505Z,1001.20
2023-05-09T02:56:34.457Z,1001.18
2023-05-09T02:57:34.464Z,1001.16
2023-05-09T02:58:34.778Z,1001.17
2023-05-09T02:59:34.459Z,1001.19
2023-05-09T03:00:34.520Z,1001.11
2023-05-09T03:01:34.511Z,1001.16
2023-05-09T03:02:34.581Z,1001.17
2023-05-09T03:03:34.821Z,1001.17
2023-05-09T03:04:34.428Z,1001.17
2023-05-09T03:05:34.420Z,1001.19
2023-05-09T03:06:34.414Z,1001.20
2023-05-09T03:07:34.404Z,1001.20
2023-05-09T03:08:34.594Z,1001.13
2023-05-09T03:09:34.414Z,1001.16
2023-05-09T03:10:34.417Z,1001.13
2023-05-09T03:11:34.354Z,1001.11
2023-05-09T03:12:34.360Z,1001.12
2023-05-09T03:13:34.615Z,1001.06
2023-05-09T03:14:34.362Z,1001.11
2023-05-09T03:15:34.379Z,1001.09
2023-05-09T03:16:34.448Z,1001.08
2023-05-09T03:17:34.333Z,1001.06
2023-05-09T03:18:34.347Z,1001.09
2023-05-09T03:19:34.316Z,1001.08
2023-05-09T03:20:34.295Z,1001.03
2023-05-09T03:21:34.311Z,1001.02
2023-05-09T03:22:34.332Z,1001.08
2023-05-09T03:23:34.340Z,1001.04
2023-05-09T03:24:34.267Z,1001.04
2023-05-09T03:25:34.275Z,1001.02
2023-05-09T03:26:34.298Z,1001.05
2023-05-09T03:27:34.298Z,1001.05
2023-05-09T03:28:34.256Z,1001.00
2023-05-09T03:29:34.281Z,1000.98
2023-05-09T03:30:34.264Z,1000.96
2023-05-09T03:31:34.303Z,1000.92
2023-05-09T03:32:34.399Z,1000.97
2023-05-09T03:33:34.232Z,1000.97
2023-05-09T03:34:34.211Z,1000.92
2023-05-09T03:35:34.246Z,1000.93
2023-05-09T03:36:34.207Z,1000.99
2023-05-09T03:37:34.199Z,1000.92
2023-05-09T03:38:34.202Z,1000.90
2023-05-09T03:39:34.189Z,1000.89
2023-05-09T03:40:34.184Z,1000.91
2023-05-09T03:41:34.175Z,1000.95
2023-05-09T03:42:34.171Z,1000.95
2023-05-09T03:43:34.155Z,1000.96
2023-05-09T03:44:34.141Z,1000.92
2023-05-09T03:45:34.133Z,1000.95
2023-05-09T03:46:34.204Z,1000.99
2023-05-09T03:47:35.145Z,1000.98
2023-05-09T03:48:34.207Z,1000.97
2023-05-09T03:49:34.119Z,1000.92
2023-05-09T03:50:34.092Z,1000.96
2023-05-09T03:51:34.157Z,1000.94
2023-05-09T03:52:34.099Z,1000.92
2023-05-09T03:53:34.097Z,1000.90
2023-05-09T03:54:34.085Z,1000.93
2023-05-09T03:55:34.080Z,1000.91
2023-05-09T03:56:34.083Z,1000.93
2023-05-09T03:57:34.055Z,1000.96
2023-05-09T03:58:34.069Z,1000.91
2023-05-09T03:59:34.708Z,1000.99
2023-05-09T04:00:34.058Z,1000.95
2023-05-09T04:02:06.511Z,1000.91
2023-05-09T04:02:34.175Z,1000.95
2023-05-09T04:03:34.134Z,1000.93
2023-05-09T04:04:34.125Z,1000.91
2023-05-09T04:05:34.006Z,1000.97
2023-05-09T04:06:33.978Z,1000.96
2023-05-09T04:07:35.059Z,1000.94
2023-05-09T04:08:33.980Z,1000.91
2023-05-09T04:09:33.978Z,1000.91
2023-05-09T04:10:33.998Z,1000.93
2023-05-09T04:11:33.965Z,1000.94
2023-05-09T04:12:34.006Z,1000.94
2023-05-09T04:13:33.962Z,1000.91
2023-05-09T04:14:33.939Z,1000.91
2023-05-09T04:15:33.963Z,1000.89
2023-05-09T04:16:33.957Z,1000.91
2023-05-09T04:17:33.979Z,1000.85
2023-05-09T04:18:33.958Z,1000.86
2023-05-09T04:19:33.938Z,1000.82
2023-05-09T04:20:34.010Z,1000.84
2023-05-09T04:21:34.011Z,1000.83
2023-05-09T04:22:33.950Z,1000.88
2023-05-09T04:23:33.973Z,1000.86
2023-05-09T04:24:33.928Z,1000.78
2023-05-09T04:25:33.894Z,1000.84
2023-05-09T04:26:33.875Z,1000.83
2023-05-09T04:27:33.915Z,1000.87
2023-05-09T04:28:33.947Z,1000.85
2023-05-09T04:29:34.975Z,1000.88
2023-05-09T04:30:33.881Z,1000.85
2023-05-09T04:31:33.924Z,1000.87
2023-05-09T04:32:33.932Z,1000.81
2023-05-09T04:33:34.158Z,1000.90
2023-05-09T04:34:33.857Z,1000.85
2023-05-09T04:35:33.835Z,1000.81
2023-05-09T04:36:33.997Z,1000.79
2023-05-09T04:37:33.834Z,1000.76
2023-05-09T04:38:33.803Z,1000.74
2023-05-09T04:39:33.824Z,1000.76
2023-05-09T04:40:33.804Z,1000.80
2023-05-09T04:41:33.797Z,1000.79
2023-05-09T04:42:33.800Z,1000.78
2023-05-09T04:43:33.777Z,1000.80
2023-05-09T04:44:33.763Z,1000.74
2023-05-09T04:45:33.788Z,1000.76
2023-05-09T04:46:33.802Z,1000.77
2023-05-09T04:47:33.803Z,1000.76
2023-05-09T04:48:33.885Z,1000.72
2023-05-09T04:49:33.731Z,1000.74
2023-05-09T04:50:33.730Z,1000.73
2023-05-09T04:51:33.714Z,1000.70
2023-05-09T04:52:33.924Z,1000.69
2023-05-09T04:53:33.751Z,1000.70
2023-05-09T04:54:33.723Z,1000.73
2023-05-09T04:55:33.710Z,1000.72
2023-05-09T04:56:33.714Z,1000.80
2023-05-09T04:57:33.804Z,1000.77
2023-05-09T04:58:33.740Z,1000.78
2023-05-09T04:59:33.730Z,1000.71
2023-05-09T05:00:33.646Z,1000.69
2023-05-09T05:01:33.675Z,1000.80
2023-05-09T05:02:33.686Z,1000.72
2023-05-09T05:03:33.708Z,1000.70
2023-05-09T05:04:33.725Z,1000.70
2023-05-09T05:05:35.258Z,1000.74
2023-05-09T05:06:35.388Z,1000.68
2023-05-09T05:07:33.628Z,1000.70
2023-05-09T05:08:33.754Z,1000.79
2023-05-09T05:09:33.607Z,1000.66
2023-05-09T05:10:33.646Z,1000.64
2023-05-09T05:11:33.620Z,1000.60
2023-05-09T05:12:33.609Z,1000.64
2023-05-09T05:13:33.601Z,1000.67
2023-05-09T05:14:33.597Z,1000.61
2023-05-09T05:15:33.564Z,1000.61
2023-05-09T05:16:33.645Z,1000.62
2023-05-09T05:17:33.589Z,1000.64
2023-05-09T05:18:33.551Z,1000.61
2023-05-09T05:19:33.527Z,1000.61
2023-05-09T05:20:33.540Z,1000.60
2023-05-09T05:21:33.539Z,1000.62
2023-05-09T05:22:33.525Z,1000.58
2023-05-09T05:24:06.854Z,1000.61
2023-05-09T05:25:06.015Z,1000.59
2023-05-09T05:26:06.010Z,1000.56
2023-05-09T05:27:07.206Z,1000.55
2023-05-09T05:28:06.107Z,1000.53
2023-05-09T05:28:33.523Z,1000.58
2023-05-09T05:30:06.954Z,1000.60
2023-05-09T05:30:34.525Z,1000.62
2023-05-09T05:31:34.512Z,1000.56
2023-05-09T05:32:33.493Z,1000.52
2023-05-09T05:33:33.453Z,1000.55
2023-05-09T05:35:07.110Z,1000.56
2023-05-09T05:35:33.467Z,1000.53
2023-05-09T05:36:33.482Z,1000.54
2023-05-09T05:37:33.590Z,1000.54
2023-05-09T05:38:33.428Z,1000.46
2023-05-09T05:39:33.509Z,1000.46
2023-05-09T05:40:33.424Z,1000.51
2023-05-09T05:41:33.520Z,1000.43
2023-05-09T05:42:33.409Z,1000.49
2023-05-09T05:43:33.397Z,1000.39
2023-05-09T05:44:33.365Z,1000.44
2023-05-09T05:45:33.993Z,1000.42
2023-05-09T05:46:33.372Z,1000.47
2023-05-09T05:47:33.423Z,1000.42
2023-05-09T05:48:33.383Z,1000.39
2023-05-09T05:49:33.371Z,1000.41
2023-05-09T05:50:33.337Z,1000.40
2023-05-09T05:51:33.344Z,1000.34
2023-05-09T05:52:33.316Z,1000.35
2023-05-09T05:53:33.594Z,1000.35
2023-05-09T05:54:33.358Z,1000.33
2023-05-09T05:55:33.391Z,1000.25
2023-05-09T05:56:33.286Z,1000.27
2023-05-09T05:57:33.305Z,1000.27
2023-05-09T05:58:33.282Z,1000.25
2023-05-09T05:59:33.294Z,1000.27
2023-05-09T06:00:33.289Z,1000.26
2023-05-09T06:01:33.266Z,1000.27
2023-05-09T06:02:33.535Z,1000.28
2023-05-09T06:03:33.404Z,1000.26
2023-05-09T06:04:33.261Z,1000.26
2023-05-09T06:05:33.270Z,1000.23
2023-05-09T06:06:33.238Z,1000.26
2023-05-09T06:07:33.327Z,1000.22
2023-05-09T06:09:05.715Z,1000.16
2023-05-09T06:09:33.239Z,1000.21
2023-05-09T06:10:33.226Z,1000.22
2023-05-09T06:11:33.303Z,1000.19
2023-05-09T06:12:33.258Z,1000.16
2023-05-09T06:13:33.206Z,1000.16
2023-05-09T06:14:33.203Z,1000.16
2023-05-09T06:15:33.178Z,1000.18
2023-05-09T06:16:33.221Z,1000.15
2023-05-09T06:17:33.186Z,1000.19
2023-05-09T06:18:33.171Z,1000.11
2023-05-09T06:19:33.206Z,1000.13
2023-05-09T06:20:33.168Z,1000.07
2023-05-09T06:21:33.136Z,1000.06
2023-05-09T06:22:33.149Z,1000.07
2023-05-09T06:23:33.214Z,999.98
2023-05-09T06:24:36.283Z,1000.01
2023-05-09T06:25:34.141Z,1000.04
2023-05-09T06:26:33.153Z,1000.08
2023-05-09T06:27:33.199Z,1000.05
2023-05-09T06:28:33.146Z,1000.08
2023-05-09T06:29:33.167Z,1000.06
2023-05-09T06:30:33.108Z,1000.08
2023-05-09T06:31:33.134Z,1000.00
2023-05-09T06:32:33.115Z,999.96
2023-05-09T06:33:33.076Z,999.95
2023-05-09T06:34:33.092Z,999.95
2023-05-09T06:35:33.095Z,999.94
2023-05-09T06:36:33.042Z,999.93
2023-05-09T06:37:33.018Z,999.92
2023-05-09T06:38:33.038Z,999.98
2023-05-09T06:39:33.037Z,999.89
2023-05-09T06:40:33.049Z,999.95
2023-05-09T06:41:33.039Z,999.92
2023-05-09T06:42:33.032Z,999.92
2023-05-09T06:43:33.128Z,999.89
2023-05-09T06:44:32.988Z,999.83
2023-05-09T06:45:33.146Z,999.80
2023-05-09T06:46:33.013Z,999.80
2023-05-09T06:47:33.055Z,999.80
2023-05-09T06:48:32.977Z,999.89
2023-05-09T06:49:32.952Z,999.77
2023-05-09T06:50:33.158Z,999.80
2023-05-09T06:51:32.953Z,999.78
2023-05-09T06:52:32.923Z,999.80
2023-05-09T06:53:32.968Z,999.82
2023-05-09T06:54:32.957Z,999.78
2023-05-09T06:55:32.907Z,999.68
2023-05-09T06:56:32.970Z,999.74
2023-05-09T06:57:32.983Z,999.72
2023-05-09T06:58:32.937Z,999.62
2023-05-09T06:59:33.003Z,999.61
2023-05-09T07:00:32.882Z,999.55
2023-05-09T07:01:32.880Z,999.56
2023-05-09T07:02:32.959Z,999.58
2023-05-09T07:03:32.906Z,999.52
2023-05-09T07:04:32.931Z,999.58
2023-05-09T07:05:32.973Z,999.50
2023-05-09T07:06:32.861Z,999.48
2023-05-09T07:07:32.857Z,999.48
2023-05-09T07:08:32.836Z,999.51
2023-05-09T07:09:32.830Z,999.51
2023-05-09T07:10:32.823Z,999.50
2023-05-09T07:11:32.849Z,999.50
2023-05-09T07:12:32.879Z,999.49
2023-05-09T07:13:32.790Z,999.51
2023-05-09T07:14:32.884Z,999.50
2023-05-09T07:15:41.125Z,999.51
2023-05-09T07:16:37.439Z,999.53
2023-05-09T07:17:32.859Z,999.53
2023-05-09T07:18:32.794Z,999.55
2023-05-09T07:19:32.808Z,999.41
2023-05-09T07:20:32.745Z,999.40
2023-05-09T07:21:32.742Z,999.35
2023-05-09T07:22:33.620Z,999.37
2023-05-09T07:23:32.745Z,999.33
2023-05-09T07:24:32.726Z,999.37
2023-05-09T07:25:32.729Z,999.34
2023-05-09T07:26:32.735Z,999.34
2023-05-09T07:27:32.744Z,999.27
2023-05-09T07:28:32.696Z,999.33
2023-05-09T07:29:33.718Z,999.23
2023-05-09T07:30:32.760Z,999.28
2023-05-09T07:31:34.038Z,999.18
2023-05-09T07:32:32.679Z,999.20
2023-05-09T07:33:32.686Z,999.17
2023-05-09T07:34:32.673Z,999.10
2023-05-09T07:35:32.679Z,999.09
2023-05-09T07:36:34.827Z,999.17
2023-05-09T07:37:32.663Z,999.19
2023-05-09T07:38:32.688Z,999.20
2023-05-09T07:39:32.633Z,999.21
2023-05-09T07:40:32.633Z,999.16
2023-05-09T07:41:32.619Z,999.09
2023-05-09T07:42:32.608Z,999.19
2023-05-09T07:43:32.626Z,999.17
2023-05-09T07:44:32.588Z,999.22
2023-05-09T07:45:32.639Z,999.16
2023-05-09T07:46:32.663Z,999.18
2023-05-09T07:47:32.688Z,999.11
2023-05-09T07:48:32.764Z,999.09
2023-05-09T07:49:32.665Z,999.04
2023-05-09T07:50:32.718Z,999.03
2023-05-09T07:51:32.577Z,999.08
2023-05-09T07:52:32.582Z,999.03
2023-05-09T07:53:32.689Z,998.99
2023-05-09T07:54:32.601Z,998.92
2023-05-09T07:55:32.555Z,998.98
2023-05-09T07:56:32.604Z,998.98
2023-05-09T07:57:32.534Z,999.03
2023-05-09T07:58:32.524Z,999.02
2023-05-09T07:59:32.556Z,999.04
2023-05-09T08:00:32.488Z,998.98
2023-05-09T08:01:32.576Z,998.93
2023-05-09T08:02:32.589Z,999.02
2023-05-09T08:03:32.855Z,998.94
2023-05-09T08:04:32.530Z,998.93
2023-05-09T08:05:32.534Z,998.92
2023-05-09T08:06:32.505Z,998.93
2023-05-09T08:07:32.513Z,998.90
2023-05-09T08:08:32.484Z,998.92
2023-05-09T08:09:32.444Z,998.86
2023-05-09T08:10:32.519Z,998.87
2023-05-09T08:11:32.451Z,998.80
2023-05-09T08:12:32.423Z,998.77
2023-05-09T08:13:32.459Z,998.71
2023-05-09T08:14:32.435Z,998.81
2023-05-09T08:15:32.436Z,998.68
2023-05-09T08:16:32.605Z,998.73
2023-05-09T08:17:32.449Z,998.71
2023-05-09T08:18:32.499Z,998.63
2023-05-09T08:19:32.460Z,998.68
2023-05-09T08:20:32.388Z,998.64
2023-05-09T08:21:32.409Z,998.56
2023-05-09T08:22:32.390Z,998.62
2023-05-09T08:23:32.439Z,998.58
2023-05-09T08:24:32.384Z,998.68
2023-05-09T08:25:32.371Z,998.59
2023-05-09T08:26:32.339Z,998.57
2023-05-09T08:27:32.310Z,998.64
2023-05-09T08:28:33.381Z,998.62
2023-05-09T08:29:32.332Z,998.72
2023-05-09T08:30:32.287Z,998.68
2023-05-09T08:31:32.343Z,998.70
2023-05-09T08:32:32.290Z,998.76
2023-05-09T08:33:32.305Z,998.74
2023-05-09T08:34:32.319Z,998.70
2023-05-09T08:35:32.419Z,998.64
2023-05-09T08:36:32.388Z,998.64
2023-05-09T08:37:32.253Z,998.56
2023-05-09T08:38:32.305Z,998.55
2023-05-09T08:39:32.251Z,998.53
2023-05-09T08:40:32.228Z,998.56
2023-05-09T08:41:32.243Z,998.53
2023-05-09T08:42:32.233Z,998.58
2023-05-09T08:43:32.291Z,998.55
2023-05-09T08:44:32.259Z,998.56
2023-05-09T08:45:32.186Z,998.49
2023-05-09T08:46:32.326Z,998.43
2023-05-09T08:47:32.238Z,998.45
2023-05-09T08:48:34.071Z,998.44
2023-05-09T08:49:32.178Z,998.48
2023-05-09T08:50:32.184Z,998.35
2023-05-09T08:51:32.306Z,998.39
2023-05-09T08:52:32.237Z,998.44
2023-05-09T08:53:32.208Z,998.35
2023-05-09T08:54:32.149Z,998.37
2023-05-09T08:55:32.178Z,998.39
2023-05-09T08:56:32.229Z,998.41
2023-05-09T08:57:32.206Z,998.37
2023-05-09T08:58:32.193Z,998.25
2023-05-09T08:59:32.208Z,998.28
2023-05-09T09:00:32.179Z,998.30
2023-05-09T09:01:32.187Z,998.33
2023-05-09T09:02:32.129Z,998.33
2023-05-09T09:03:32.097Z,998.42
2023-05-09T09:04:32.140Z,998.38
2023-05-09T09:05:41.423Z,998.40
2023-05-09T09:06:34.288Z,998.28
2023-05-09T09:07:32.069Z,998.43
2023-05-09T09:08:32.030Z,998.40
2023-05-09T09:09:32.080Z,998.34
2023-05-09T09:10:32.015Z,998.36
2023-05-09T09:11:32.228Z,998.28
2023-05-09T09:12:32.019Z,998.31
2023-05-09T09:13:32.086Z,998.29
2023-05-09T09:14:32.006Z,998.24
2023-05-09T09:15:32.106Z,998.23
2023-05-09T09:16:32.036Z,998.25
2023-05-09T09:17:32.041Z,998.13
2023-05-09T09:18:31.985Z,998.19
2023-05-09T09:19:31.970Z,998.02
2023-05-09T09:20:32.993Z,998.00
2023-05-09T09:21:31.969Z,998.00
2023-05-09T09:22:31.956Z,997.98
2023-05-09T09:23:31.978Z,997.87
2023-05-09T09:24:31.928Z,997.86
2023-05-09T09:25:31.938Z,997.90
2023-05-09T09:26:31.954Z,997.87
2023-05-09T09:27:31.955Z,997.80
2023-05-09T09:28:31.920Z,997.82
2023-05-09T09:29:31.942Z,997.80
2023-05-09T09:30:31.906Z,997.83
2023-05-09T09:31:31.936Z,997.79
2023-05-09T09:32:31.923Z,997.70
2023-05-09T09:33:31.877Z,997.66
2023-05-09T09:34:31.918Z,997.74
2023-05-09T09:35:31.859Z,997.74
2023-05-09T09:36:31.864Z,997.71
2023-05-09T09:37:31.896Z,997.73
2023-05-09T09:38:31.950Z,997.70
2023-05-09T09:39:31.845Z,997.69
2023-05-09T09:40:31.910Z,997.72
2023-05-09T09:41:31.833Z,997.59
2023-05-09T09:42:31.840Z,997.58
2023-05-09T09:43:31.844Z,997.56
2023-05-09T09:44:31.864Z,997.57
2023-05-09T09:45:31.818Z,997.44
2023-05-09T09:46:31.848Z,997.45
2023-05-09T09:47:31.854Z,997.44
2023-05-09T09:48:31.797Z,997.43
2023-05-09T09:49:31.880Z,997.41
2023-05-09T09:50:31.771Z,997.41
2023-05-09T09:51:31.781Z,997.36
2023-05-09T09:52:31.809Z,997.38
2023-05-09T09:53:31.802Z,997.26
2023-05-09T09:54:31.809Z,997.39
2023-05-09T09:55:31.781Z,997.37
2023-05-09T09:56:31.779Z,997.28
2023-05-09T09:57:31.748Z,997.29
2023-05-09T09:58:31.759Z,997.03
2023-05-09T09:59:31.779Z,997.20
2023-05-09T10:00:31.752Z,997.15
2023-05-09T10:01:31.780Z,997.11
2023-05-09T10:02:31.814Z,997.13
2023-05-09T10:03:32.778Z,996.97
2023-05-09T10:04:31.780Z,997.08
2023-05-09T10:05:31.842Z,997.10
2023-05-09T10:06:31.732Z,997.16
2023-05-09T10:07:31.798Z,996.96
2023-05-09T10:08:32.690Z,997.09
2023-05-09T10:09:31.680Z,996.91
2023-05-09T10:10:31.825Z,996.99
2023-05-09T10:11:31.743Z,997.00
2023-05-09T10:12:31.687Z,996.81
2023-05-09T10:13:31.704Z,996.98
2023-05-09T10:14:34.273Z,996.97
2023-05-09T10:15:38.480Z,996.84
2023-05-09T10:16:43.871Z,996.90
2023-05-09T10:17:33.811Z,996.88
2023-05-09T10:18:31.993Z,996.91
2023-05-09T10:19:31.653Z,996.84
2023-05-09T10:20:31.672Z,996.86
2023-05-09T10:21:31.671Z,996.83
2023-05-09T10:22:31.654Z,996.78
2023-05-09T10:23:31.621Z,996.75
2023-05-09T10:24:31.667Z,996.73
2023-05-09T10:25:31.599Z,996.71
2023-05-09T10:26:31.790Z,996.73
2023-05-09T10:27:31.734Z,996.80
2023-05-09T10:28:31.581Z,996.74
2023-05-09T10:29:31.800Z,996.57
2023-05-09T10:30:33.916Z,996.59
2023-05-09T10:31:31.609Z,996.59
2023-05-09T10:32:31.606Z,996.57
2023-05-09T10:33:31.569Z,996.50
2023-05-09T10:34:31.583Z,996.46
2023-05-09T10:35:31.633Z,996.45
2023-05-09T10:36:31.588Z,996.47
2023-05-09T10:37:31.661Z,996.45
2023-05-09T10:38:31.585Z,996.46
2023-05-09T10:39:31.560Z,996.38
2023-05-09T10:40:31.561Z,996.42
2023-05-09T10:41:31.560Z,996.48
2023-05-09T10:42:31.715Z,996.37
2023-05-09T10:43:32.172Z,996.34
2023-05-09T10:44:32.535Z,996.48
2023-05-09T10:45:31.520Z,996.37
2023-05-09T10:46:31.548Z,996.37
2023-05-09T10:47:31.575Z,996.35
2023-05-09T10:48:31.472Z,996.27
2023-05-09T10:49:31.512Z,996.25
2023-05-09T10:50:31.476Z,996.43
2023-05-09T10:52:04.977Z,996.28
2023-05-09T10:53:06.179Z,996.28
2023-05-09T10:53:31.510Z,996.28
2023-05-09T10:56:37.504Z,996.14
2023-05-09T10:58:11.134Z,996.30
2023-05-09T10:59:12.040Z,996.19
2023-05-09T11:00:11.023Z,996.29
2023-05-09T11:01:12.006Z,996.27
2023-05-09T11:02:11.007Z,996.15
2023-05-09T11:02:38.677Z,996.20
2023-05-09T11:03:38.626Z,996.19
2023-05-09T11:04:38.596Z,996.37
2023-05-09T11:05:38.548Z,996.29
2023-05-09T11:06:39.504Z,996.16
2023-05-09T11:07:38.594Z,996.25
2023-05-09T11:08:38.512Z,996.10
2023-05-09T11:09:38.596Z,996.12
2023-05-09T11:10:38.600Z,996.15
2023-05-09T11:11:38.524Z,996.10
2023-05-09T11:12:38.533Z,996.08
2023-05-09T11:13:38.580Z,996.00
2023-05-09T11:14:38.510Z,995.99
2023-05-09T11:15:38.478Z,995.93
2023-05-09T11:16:38.536Z,996.07
2023-05-09T11:17:38.578Z,996.05
2023-05-09T11:18:38.472Z,996.10
2023-05-09T11:19:38.440Z,996.01
2023-05-09T11:20:38.479Z,996.03
2023-05-09T11:21:38.447Z,996.02
2023-05-09T11:22:38.432Z,996.07
2023-05-09T11:23:38.439Z,996.06
2023-05-09T11:24:38.425Z,996.04
2023-05-09T11:25:38.413Z,996.05
2023-05-09T11:26:38.425Z,996.07
2023-05-09T11:27:38.389Z,996.02
2023-05-09T11:28:38.445Z,995.95
2023-05-09T11:29:38.480Z,995.97
2023-05-09T11:30:38.560Z,996.01
2023-05-09T11:31:38.412Z,995.99
2023-05-09T11:32:38.442Z,995.98
2023-05-09T11:33:38.389Z,995.88
2023-05-09T11:34:38.404Z,995.89
2023-05-09T11:35:38.373Z,995.86
2023-05-09T11:36:38.366Z,995.84
2023-05-09T11:37:38.345Z,995.83
2023-05-09T11:38:38.365Z,995.89
2023-05-09T11:39:38.340Z,995.86
2023-05-09T11:40:38.340Z,995.88
2023-05-09T11:41:38.354Z,995.90
2023-05-09T11:42:38.313Z,995.83
2023-05-09T11:43:38.306Z,995.82
2023-05-09T11:44:38.329Z,995.84
2023-05-09T11:45:38.433Z,995.77
2023-05-09T11:46:38.288Z,995.85
2023-05-09T11:47:38.328Z,995.90
2023-05-09T11:48:38.282Z,995.92
2023-05-09T11:49:38.282Z,995.87
2023-05-09T11:50:38.298Z,995.97
2023-05-09T11:51:38.272Z,995.90
2023-05-09T11:52:38.255Z,995.92
2023-05-09T11:53:38.264Z,995.93
2023-05-09T11:54:38.253Z,995.89
2023-05-09T11:55:38.275Z,995.87
2023-05-09T11:56:38.244Z,995.86
2023-05-09T11:57:38.264Z,995.80
2023-05-09T11:58:38.266Z,995.78
2023-05-09T11:59:38.220Z,995.74
2023-05-09T12:00:38.300Z,995.83
2023-05-09T12:01:38.394Z,995.78
2023-05-09T12:02:38.266Z,995.80
2023-05-09T12:03:38.313Z,995.73
2023-05-09T12:04:38.269Z,995.82
2023-05-09T12:05:38.178Z,995.81
2023-05-09T12:06:38.187Z,995.81
2023-05-09T12:07:38.189Z,995.78
2023-05-09T12:08:38.217Z,995.71
2023-05-09T12:09:38.183Z,995.66
2023-05-09T12:10:38.150Z,995.59
2023-05-09T12:11:38.222Z,995.51
2023-05-09T12:12:38.405Z,995.60
2023-05-09T12:13:38.337Z,995.53
2023-05-09T12:14:38.132Z,995.49
2023-05-09T12:15:38.828Z,995.51
2023-05-09T12:16:38.232Z,995.49
2023-05-09T12:17:38.294Z,995.50
2023-05-09T12:18:38.136Z,995.47